Grefrath-Niershorst Airport

EDLF · North Rhine-Westphalia, 德国

罗盘
风向 的 Grefrath-Niershorst Airport 7/25
风: 2 kt, 1 beaufort

1 kt

2 kt
改变
0 1.000 2.000 3.000 4.000 5.000
未检测到零云
METAR EDLN 030150Z AUTO VRB02KT 9999 // NCD 08/08 Q1026

METAR Grefrath-Niershorst Airport - EDLF

Grefrath-Niershorst Airport是Grefrath,德国中的小机场。 该机场有一条跑道: 7/25. 该领域的国际民航组织标志是EDLF.

这份报告是针对2022年10月3日 03:50, 当地时间在Mönchengladbach Airport进行的。

机场观察

可变方向的风很小或没有风。

可见度为10 km 或者更多。

有未检测到零云。 没有观察到天花板。

温度为8 °C,阵风为7 °C。 露点为8 °C,相对湿度为100%。 海平面上的气压为1026 hPa (QNH)。

白天

今天,太阳从07:38升起,在19:08降落。 这适用于Grefrath-Niershorst Airport,世界夏令时可能有所不同。 当地时间与世界标准时间之间的时差为+2 小时。 夏令时目前正在进行中。

公司介绍

在这个机场,你可以找到跳伞中心。 本场上唯一已知的公司是Fallschirmsport Grefrath。

体会

到Vliegles.nl去找飞行课程,跳伞和其他飞行体验。 浏览页面,了解Grefrath-Niershorst Airport附近所有可用的活动。 你也可以使用搜索功能来寻找你所在地附近的特定飞行课程、跳伞或其他飞行体验。

跑道

Id 标题 侧风 逆风 侧风 %
7/25 070°-250° 2 kt 94 %

逆风成分最大的方向会被突出显示,并用于横风计算。 这并不一定意味着这个方向在使用。

乌云

- NCD 未检测到零云

温度 & 天气

温度 8 °C
露点 8 °C
相对湿度 100%
风寒 7 °C
Kp-index 3 (0-9)

白天

日出
07:37 (3h 19m)
中午
13:23
日落
19:08

小工具

你想在你的网站上有一个关于Grefrath-Niershorst Airport的当前航空天气(METAR)的小部件吗?

</> 显示HTML代码

我们和第三方通过cookies跟踪您在我们网站上的上网行为。如果您继续,我们认为您同意我们的cookie政策。 了解更多